首页
METAR-TAF:

METAR-TAF

机场 :

Bedford, 宾夕法尼亚州, 美国

纬度: 40-05-10N, 经度: 078-30-49W, 海拔: 354米

当前天气观测

该预报发布于22分钟前的03:15 UTC
风速3节,风向东转东南
温度 20°C
湿度 94%
气压 1006 hPa
能見度: 16.1公里
多云层高于11000英尺

METAR: KHMZ 200315Z AUTO 11003KT 10SM BKN110 20/19 A2972 RMK AO2 P0001 T01970192

时间: 23:37 (03:37 UTC)


TAF: 丢失

超过4000个机场的气象观测和天气预报(METAR&TAF报告)。

可查询的气象台以黄色和红色小点在地图上表示。

将鼠标移到小点上方,可查看气象台名称。

然后点击查看天气观测和预报。

如需切换地图:点击带黑十字的绿色按钮放大地图;点击带横线的绿色按钮缩小地图;或者点击绿色箭头查看邻近地区的地图。


METAR-TAF: